Time;durP1;ratioP1;P1;durP2;ratioP2;P2;SDS_P1;SDS_P2;PMS_P1;PMS_P2;Temp;Humidity;BMP_temperature;BMP_pressure;BME280_temperature;BME280_humidity;BME280_pressure;Samples;Min_cycle;Max_cycle;Signal;HPM_P1;HPM_P2
2022/07/29 00:00:30;;;;;;;4.40;3.05;;;;;;;25.43;38.92;99787.37;7633019;32;37875;-72
2022/07/29 00:04:46;;;;;;;4.22;2.90;;;;;;;25.37;39.28;99786.09;7633026;32;37010;-72
2022/07/29 00:09:02;;;;;;;6.85;3.12;;;;;;;25.33;39.35;99790.78;7632936;32;40215;-72
2022/07/29 00:13:18;;;;;;;4.32;3.10;;;;;;;25.25;39.59;99786.22;7632872;32;40028;-72
2022/07/29 00:17:47;;;;;;;4.87;3.08;;;;;;;25.16;39.94;99783.69;7632793;32;37974;-72
2022/07/29 00:22:03;;;;;;;5.68;2.92;;;;;;;25.20;39.71;99778.16;7608501;32;37277;-72
2022/07/29 00:26:19;;;;;;;5.15;3.00;;;;;;;25.33;39.31;99776.84;7606650;32;39315;-72
2022/07/29 00:30:35;;;;;;;7.10;3.28;;;;;;;25.16;39.84;99775.31;7606140;32;40775;-72
2022/07/29 00:39:26;;;;;;;7.10;3.15;;;;;;;25.08;40.08;99782.75;7606743;32;37903;-73
2022/07/29 00:43:44;;;;;;;12.07;3.08;;;;;;;24.97;40.41;99789.31;7608795;32;40150;-71
2022/07/29 00:48:00;;;;;;;4.68;2.80;;;;;;;24.87;40.67;99780.37;7632439;32;40077;-72
2022/07/29 00:52:16;;;;;;;7.35;3.47;;;;;;;24.87;40.63;99783.16;7632337;32;38434;-72
2022/07/29 00:56:33;;;;;;;3.78;3.05;;;;;;;24.98;40.56;99774.19;7632588;32;36819;-71
2022/07/29 01:00:49;;;;;;;6.28;3.47;;;;;;;24.90;40.92;99778.81;7632352;32;39326;-72
2022/07/29 01:05:06;;;;;;;4.70;2.85;;;;;;;24.97;40.67;99770.59;7632348;32;39945;-73
2022/07/29 01:09:23;;;;;;;5.22;3.28;;;;;;;24.89;40.96;99764.09;7618914;32;37920;-72
2022/07/29 01:14:00;;;;;;;4.97;3.03;;;;;;;24.82;41.11;99760.34;7629482;32;37446;-71
2022/07/29 01:18:27;;;;;;;5.60;3.20;;;;;;;24.64;41.68;99760.00;7606237;32;39138;-72
2022/07/29 01:22:50;;;;;;;6.40;3.10;;;;;;;24.57;41.78;99757.87;7605915;32;39996;-72
2022/07/29 01:27:23;;;;;;;;;;;;;;;24.54;41.79;99767.78;7592891;32;37842;-73
2022/07/29 01:31:43;;;;;;;5.90;3.25;;;;;;;24.59;41.62;99769.44;7606161;32;37603;-71
2022/07/29 01:36:23;;;;;;;3.92;2.97;;;;;;;24.64;41.42;99763.59;7606061;32;40178;-71
2022/07/29 01:40:47;;;;;;;5.07;3.45;;;;;;;24.68;41.13;99769.22;7595007;32;40847;-72
2022/07/29 01:45:26;;;;;;;4.15;2.92;;;;;;;24.53;41.47;99768.12;7622820;32;37925;-73
2022/07/29 01:49:46;;;;;;;4.28;2.78;;;;;;;24.60;41.54;99762.72;7631778;32;38099;-71
2022/07/29 01:54:14;;;;;;;3.95;2.80;;;;;;;24.52;41.35;99758.94;7618835;32;39322;-72
2022/07/29 01:58:32;;;;;;;5.50;2.97;;;;;;;24.54;41.46;99753.03;7618928;32;39917;-71
2022/07/29 02:02:50;;;;;;;4.68;3.20;;;;;;;24.50;41.51;99758.50;7597068;32;36763;-72
2022/07/29 02:07:10;;;;;;;3.72;2.85;;;;;;;24.48;41.34;99754.47;7614259;32;37604;-72
2022/07/29 02:11:26;;;;;;;5.65;3.20;;;;;;;24.47;41.52;99756.44;7631348;32;40082;-72
2022/07/29 02:15:43;;;;;;;4.70;2.75;;;;;;;24.46;41.66;99759.63;7631358;32;39629;-71
2022/07/29 02:20:02;;;;;;;7.90;3.20;;;;;;;24.23;42.29;99760.31;7625917;32;38646;-71
2022/07/29 02:24:18;;;;;;;4.43;3.28;;;;;;;24.22;42.15;99753.16;7591761;32;37154;-72
2022/07/29 02:28:35;;;;;;;5.18;2.92;;;;;;;24.08;42.47;99748.06;7619178;32;39396;-72
2022/07/29 02:32:51;;;;;;;5.65;3.20;;;;;;;24.14;42.24;99745.81;7617436;32;40847;-72
2022/07/29 02:37:09;;;;;;;7.87;3.10;;;;;;;23.88;42.91;99755.56;7622754;32;38006;-71
2022/07/29 02:41:42;;;;;;;5.07;3.33;;;;;;;23.96;42.75;99751.78;7619866;32;36912;-72
2022/07/29 02:45:59;;;;;;;5.15;3.35;;;;;;;23.99;42.49;99753.03;7618146;32;40109;-71
2022/07/29 02:50:32;;;;;;;8.40;3.50;;;;;;;24.00;42.30;99747.09;7630368;32;40287;-71
2022/07/29 02:54:58;;;;;;;4.85;3.20;;;;;;;23.84;42.96;99749.13;7621576;32;37623;-71
2022/07/29 02:59:17;;;;;;;6.22;3.58;;;;;;;23.76;43.35;99742.53;7620031;32;37034;-72
2022/07/29 03:03:37;;;;;;;5.05;3.33;;;;;;;23.80;43.24;99749.03;7594800;32;39488;-72
2022/07/29 03:08:04;;;;;;;3.92;3.12;;;;;;;23.66;43.87;99756.22;7619843;32;39982;-71
2022/07/29 03:12:20;;;;;;;8.35;3.50;;;;;;;23.76;43.56;99758.44;7606824;32;38907;-71
2022/07/29 03:16:36;;;;;;;6.70;3.40;;;;;;;23.73;43.79;99753.59;7594352;32;36922;-71
2022/07/29 03:20:56;;;;;;;6.35;3.35;;;;;;;23.91;43.22;99749.28;7594648;32;39266;-71
2022/07/29 03:25:13;;;;;;;5.37;3.58;;;;;;;23.70;43.94;99751.53;7598985;32;39663;-72
2022/07/29 03:29:30;;;;;;;4.30;3.10;;;;;;;23.61;44.21;99749.75;7633248;32;38719;-71
2022/07/29 03:33:48;;;;;;;6.37;3.37;;;;;;;23.69;43.82;99749.94;7629015;32;37862;-72
2022/07/29 03:38:05;;;;;;;7.28;3.65;;;;;;;23.56;44.17;99743.66;7633005;32;39440;-72
2022/07/29 03:42:24;;;;;;;5.35;3.10;;;;;;;23.61;43.90;99752.56;7633267;32;40239;-72
2022/07/29 03:46:41;;;;;;;5.35;3.53;;;;;;;23.66;43.84;99751.44;7633226;32;37689;-72
2022/07/29 03:50:58;;;;;;;5.12;3.60;;;;;;;23.71;43.77;99755.94;7619894;32;37161;-71
2022/07/29 03:55:14;;;;;;;4.00;3.20;;;;;;;23.69;43.93;99752.72;7616278;32;39913;-71
2022/07/29 03:59:33;;;;;;;6.20;3.42;;;;;;;23.85;43.53;99761.84;7593654;32;40041;-73
2022/07/29 04:03:49;;;;;;;5.37;3.65;;;;;;;23.78;43.71;99759.72;7607066;32;38733;-71
2022/07/29 04:08:06;;;;;;;7.20;3.60;;;;;;;23.71;44.01;99761.50;7606984;32;37189;-72
2022/07/29 04:12:22;;;;;;;5.35;3.42;;;;;;;23.81;43.77;99760.97;7606842;32;39050;-72
2022/07/29 04:16:38;;;;;;;5.60;3.58;;;;;;;23.84;43.75;99760.25;7606906;32;40520;-72
2022/07/29 04:20:54;;;;;;;5.32;3.28;;;;;;;23.91;43.71;99771.56;7612463;32;38519;-77
2022/07/29 04:25:10;;;;;;;5.15;3.47;;;;;;;23.85;43.77;99761.84;7632506;32;37802;-79
2022/07/29 04:29:27;;;;;;;6.03;3.42;;;;;;;24.04;43.56;99760.28;7624944;32;40201;-76
2022/07/29 04:33:43;;;;;;;5.72;3.58;;;;;;;24.08;43.52;99762.00;7620631;32;40831;-77
2022/07/29 04:37:59;;;;;;;5.97;3.17;;;;;;;24.00;43.73;99769.38;7610425;32;38008;-78
2022/07/29 04:42:15;;;;;;;5.37;3.40;;;;;;;24.29;43.08;99764.44;7630293;32;37552;-78
2022/07/29 04:46:32;;;;;;;6.25;3.37;;;;;;;24.37;42.81;99759.84;7607068;32;40240;-77
2022/07/29 04:50:48;;;;;;;5.65;3.53;;;;;;;24.49;42.71;99756.06;7606321;32;39924;-78
2022/07/29 04:55:05;;;;;;;5.55;3.37;;;;;;;24.46;42.65;99762.41;7609369;32;38090;-76
2022/07/29 04:59:22;;;;;;;9.75;3.50;;;;;;;24.60;42.41;99759.94;7632393;32;37854;-76
2022/07/29 05:03:38;;;;;;;4.90;3.45;;;;;;;24.68;42.03;99769.22;7631030;32;39874;-77
2022/07/29 05:07:55;;;;;;;6.55;3.45;;;;;;;24.83;41.66;99773.91;7618797;32;40588;-78
2022/07/29 05:12:11;;;;;;;6.50;3.37;;;;;;;25.00;41.41;99777.41;7618956;32;37962;-77
2022/07/29 05:16:27;;;;;;;7.50;3.55;;;;;;;25.18;40.85;99774.94;7606245;32;37853;-77
2022/07/29 05:20:43;;;;;;;6.72;3.28;;;;;;;25.32;40.60;99768.84;7592687;32;39372;-72
2022/07/29 05:24:59;;;;;;;5.57;3.75;;;;;;;25.29;40.75;99765.63;7605746;32;39990;-77
2022/07/29 05:29:23;;;;;;;7.22;3.30;;;;;;;25.43;40.42;99773.44;7620714;32;37913;-75
2022/07/29 05:34:00;;;;;;;4.85;3.35;;;;;;;25.59;40.08;99761.31;7628968;32;40300;-77
2022/07/29 05:38:16;;;;;;;4.97;3.40;;;;;;;25.66;40.20;99759.47;7607343;32;39051;-78
2022/07/29 05:42:32;;;;;;;4.75;3.35;;;;;;;25.96;39.22;99757.94;7592318;32;39924;-75
2022/07/29 05:46:48;;;;;;;6.00;3.35;;;;;;;25.99;38.95;99757.16;7607895;32;37927;-78
2022/07/29 05:51:04;;;;;;;5.40;3.78;;;;;;;26.21;38.30;99763.84;7631729;32;37172;-77
2022/07/29 05:55:20;;;;;;;5.82;3.60;;;;;;;26.47;37.87;99767.78;7631740;32;39570;-76
2022/07/29 05:59:37;;;;;;;6.37;3.78;;;;;;;26.54;37.62;99765.06;7620365;32;40851;-80
2022/07/29 06:03:53;;;;;;;6.97;3.45;;;;;;;26.53;37.69;99758.69;7626229;32;37820;-78
2022/07/29 06:08:09;;;;;;;6.82;3.65;;;;;;;26.95;37.05;99759.56;7631406;32;38132;-78
2022/07/29 06:12:26;;;;;;;6.20;3.35;;;;;;;27.16;36.55;99761.78;7628340;32;39083;-79
2022/07/29 06:16:42;;;;;;;12.57;3.58;;;;;;;27.37;36.02;99757.59;7631164;32;39758;-75
2022/07/29 06:20:58;;;;;;;12.20;3.72;;;;;;;27.50;35.98;99754.09;7615808;32;37915;-76
2022/07/29 06:25:14;;;;;;;5.18;3.55;;;;;;;27.62;35.61;99758.59;7630833;32;37088;-75
2022/07/29 06:29:30;;;;;;;7.15;3.70;;;;;;;28.02;34.58;99762.50;7630700;32;40092;-76
2022/07/29 06:33:47;;;;;;;6.25;3.25;;;;;;;28.04;33.98;99756.50;7630742;32;40081;-77
2022/07/29 06:38:03;;;;;;;8.70;3.87;;;;;;;28.31;33.13;99759.84;7630751;32;38036;-75
2022/07/29 06:42:43;;;;;;;6.47;3.50;;;;;;;28.28;32.38;99763.44;7630097;32;37302;-74
2022/07/29 06:47:00;;;;;;;7.15;3.47;;;;;;;28.64;32.33;99758.00;7604960;32;39394;-72
2022/07/29 06:51:16;;;;;;;5.50;3.65;;;;;;;28.79;31.76;99759.66;7606371;32;39781;-75
2022/07/29 06:55:38;;;;;;;8.53;3.80;;;;;;;28.72;32.72;99758.81;7613826;32;37775;-76
2022/07/29 06:59:55;;;;;;;5.87;3.17;;;;;;;29.00;31.65;99763.72;7630297;32;36771;-75
2022/07/29 07:04:13;;;;;;;7.22;3.80;;;;;;;28.76;31.59;99765.25;7630207;32;38885;-76
2022/07/29 07:08:30;;;;;;;7.15;3.92;;;;;;;28.85;31.71;99757.25;7629984;32;39983;-74
2022/07/29 07:12:46;;;;;;;4.72;3.55;;;;;;;29.28;31.28;99762.19;7627907;32;37979;-76
2022/07/29 07:17:03;;;;;;;6.80;3.87;;;;;;;29.35;30.90;99756.56;7629129;32;37841;-76
2022/07/29 07:21:19;;;;;;;5.43;3.58;;;;;;;29.13;31.05;99750.91;7603427;32;39009;-77
2022/07/29 07:25:36;;;;;;;8.57;3.75;;;;;;;29.65;30.52;99746.91;7602589;32;40054;-76
2022/07/29 07:29:53;;;;;;;8.13;3.33;;;;;;;29.79;29.98;99758.19;7603298;32;37924;-77
2022/07/29 07:34:09;;;;;;;8.00;3.50;;;;;;;29.89;30.04;99746.12;7603317;32;37965;-75
2022/07/29 07:38:25;;;;;;;5.85;3.47;;;;;;;29.85;30.26;99736.88;7610984;32;38140;-75
2022/07/29 07:42:41;;;;;;;6.85;3.58;;;;;;;30.39;29.44;99738.75;7621345;32;40013;-76
2022/07/29 07:46:58;;;;;;;6.40;3.60;;;;;;;30.37;29.99;99741.97;7625636;32;37930;-75
2022/07/29 07:51:26;;;;;;;5.57;3.30;;;;;;;30.68;29.40;99740.25;7607173;32;37941;-77
2022/07/29 07:55:44;;;;;;;9.35;3.33;;;;;;;30.58;29.32;99734.66;7594181;32;40075;-76
2022/07/29 08:00:20;;;;;;;7.80;3.35;;;;;;;31.26;28.75;99731.44;7631826;32;40298;-74
2022/07/29 08:04:40;;;;;;;8.43;3.72;;;;;;;31.35;28.41;99733.75;7632235;32;37788;-74
2022/07/29 08:08:56;;;;;;;5.40;3.60;;;;;;;31.34;28.29;99730.16;7632066;32;37665;-74
2022/07/29 08:13:32;;;;;;;6.45;3.80;;;;;;;31.48;28.18;99728.41;7607335;32;39402;-74
2022/07/29 08:17:48;;;;;;;9.90;3.53;;;;;;;31.80;27.95;99723.28;7606698;32;39876;-74
2022/07/29 08:22:04;;;;;;;5.80;3.25;;;;;;;32.08;27.77;99729.88;7606678;32;38845;-74
2022/07/29 08:26:22;;;;;;;5.95;3.53;;;;;;;32.19;27.84;99722.09;7606063;32;37904;-75
2022/07/29 08:30:38;;;;;;;8.30;3.50;;;;;;;32.47;27.18;99720.13;7606584;32;39122;-75
2022/07/29 08:34:54;;;;;;;7.00;3.60;;;;;;;32.11;27.38;99731.84;7606327;32;39605;-74
2022/07/29 08:39:10;;;;;;;6.30;3.85;;;;;;;32.72;26.52;99721.84;7606500;32;38497;-74
2022/07/29 08:43:28;;;;;;;4.72;3.42;;;;;;;32.94;26.18;99714.66;7606536;32;37159;-74
2022/07/29 08:47:46;;;;;;;6.53;3.40;;;;;;;33.09;26.43;99723.69;7603366;32;39311;-75
2022/07/29 08:52:02;;;;;;;7.37;3.28;;;;;;;33.08;25.47;99719.28;7603645;32;40687;-74
2022/07/29 08:56:19;;;;;;;4.62;3.17;;;;;;;33.02;26.19;99718.16;7590914;32;38408;-75
2022/07/29 09:00:37;;;;;;;6.78;3.72;;;;;;;33.25;25.81;99717.41;7605126;32;38131;-75
2022/07/29 09:04:53;;;;;;;6.05;3.17;;;;;;;33.59;25.67;99716.41;7606220;32;39590;-74
2022/07/29 09:09:09;;;;;;;7.25;3.30;;;;;;;33.69;25.12;99706.19;7606180;32;40009;-74
2022/07/29 09:13:25;;;;;;;6.30;3.65;;;;;;;33.95;24.42;99712.94;7605995;32;38608;-74
2022/07/29 09:17:46;;;;;;;10.63;3.40;;;;;;;33.93;23.76;99715.41;7606942;32;36989;-74
2022/07/29 09:22:05;;;;;;;5.57;3.20;;;;;;;34.20;23.57;99701.16;7605977;32;39408;-75
2022/07/29 09:26:27;;;;;;;9.18;3.60;;;;;;;34.09;23.67;99711.06;7605701;32;39915;-75
2022/07/29 09:30:55;;;;;;;6.28;3.45;;;;;;;34.36;23.05;99699.62;7598249;32;35689;-75
2022/07/29 09:35:19;;;;;;;8.45;3.70;;;;;;;34.58;22.76;99699.94;7631250;32;37205;-76
2022/07/29 09:39:48;;;;;;;6.00;3.40;;;;;;;35.04;22.56;99686.75;7630995;32;39452;-74
2022/07/29 09:44:05;;;;;;;5.62;3.37;;;;;;;35.06;21.82;99684.25;7630920;32;39768;-75
2022/07/29 09:48:24;;;;;;;6.57;3.30;;;;;;;35.35;21.49;99678.69;7619939;32;37518;-74
2022/07/29 09:52:49;;;;;;;6.75;3.17;;;;;;;35.20;20.95;99676.66;7622438;32;37527;-74
2022/07/29 09:57:09;;;;;;;4.25;2.60;;;;;;;34.90;21.27;99678.63;7631792;32;39446;-75
2022/07/29 10:01:28;;;;;;;5.00;2.60;;;;;;;35.63;20.26;99664.22;7630700;32;39976;-76
2022/07/29 10:05:45;;;;;;;9.10;2.95;;;;;;;35.75;19.56;99663.50;7631636;32;38088;-75
2022/07/29 10:10:02;;;;;;;8.77;3.10;;;;;;;35.94;19.43;99658.91;7591712;32;37901;-74
2022/07/29 10:14:18;;;;;;;10.23;2.85;;;;;;;35.62;19.86;99662.62;7622107;32;39249;-74
2022/07/29 10:18:35;;;;;;;8.52;3.22;;;;;;;35.42;20.57;99659.94;7607550;32;40556;-75
2022/07/29 10:22:52;;;;;;;7.25;3.00;;;;;;;36.24;19.91;99656.84;7609897;32;37994;-75
2022/07/29 10:27:09;;;;;;;5.75;3.00;;;;;;;35.66;19.99;99651.97;7618124;32;36326;-75
2022/07/29 10:31:41;;;;;;;6.55;2.60;;;;;;;35.49;19.90;99657.69;7625492;32;39348;-75
2022/07/29 10:36:19;;;;;;;3.40;2.50;;;;;;;36.16;19.34;99652.59;7603342;32;40317;-75
2022/07/29 10:45:23;;;;;;;5.43;2.22;;;;;;;35.93;18.75;99640.31;7623971;32;37988;-75
2022/07/29 10:49:54;;;;;;;6.97;2.50;;;;;;;36.72;18.17;99637.13;7622910;32;39905;-76
2022/07/29 10:54:11;;;;;;;5.62;2.30;;;;;;;36.85;17.81;99635.06;7592500;32;40830;-74
2022/07/29 10:58:27;;;;;;;4.55;2.62;;;;;;;37.19;17.16;99622.19;7604189;32;38052;-75
2022/07/29 11:02:51;;;;;;;5.62;2.83;;;;;;;37.18;17.39;99618.53;7603898;32;37169;-75
2022/07/29 11:07:10;;;;;;;4.20;2.60;;;;;;;37.14;17.22;99628.44;7624798;32;40387;-75
2022/07/29 11:11:26;;;;;;;7.22;3.20;;;;;;;37.99;16.72;99620.13;7606750;32;40880;-75
2022/07/29 11:15:57;;;;;;;7.62;2.55;;;;;;;38.03;16.53;99615.09;7625142;32;39455;-76
2022/07/29 11:20:42;;;;;;;6.43;2.80;;;;;;;37.79;16.22;99603.41;7620049;32;37067;-75
2022/07/29 11:25:18;;;;;;;4.60;2.45;;;;;;;37.38;16.10;99603.25;7606954;32;39550;-76
2022/07/29 11:29:57;;;;;;;6.12;2.50;;;;;;;37.03;16.76;99604.03;7606885;32;41353;-74
2022/07/29 11:34:24;;;;;;;9.00;2.95;;;;;;;37.05;16.91;99600.72;7607393;32;37983;-75
2022/07/29 11:38:44;;;;;;;7.82;2.92;;;;;;;37.86;16.65;99580.38;7609262;32;36779;-74
2022/07/29 11:43:01;;;;;;;8.45;2.83;;;;;;;38.41;16.54;99579.88;7632721;32;39338;-73
2022/07/29 11:47:22;;;;;;;5.25;2.67;;;;;;;38.39;16.28;99582.41;7615302;32;40066;-75
2022/07/29 11:51:42;;;;;;;4.35;2.70;;;;;;;39.04;15.65;99567.09;7622303;32;37725;-75
2022/07/29 11:56:03;;;;;;;5.50;2.50;;;;;;;38.81;14.54;99565.63;7626836;32;37645;-74
2022/07/29 12:00:39;;;;;;;3.65;2.45;;;;;;;38.69;15.40;99566.56;7607013;32;39404;-75
2022/07/29 12:04:58;;;;;;;5.55;2.30;;;;;;;38.78;15.55;99558.03;7593379;32;40649;-76
2022/07/29 12:09:14;;;;;;;4.97;2.62;;;;;;;38.60;15.33;99557.97;7629614;32;37696;-75
2022/07/29 12:13:38;;;;;;;10.73;2.80;;;;;;;38.88;14.94;99562.47;7632928;32;37147;-75
2022/07/29 12:17:54;;;;;;;8.77;2.80;;;;;;;38.80;15.28;99555.50;7611268;32;39069;-76
2022/07/29 12:22:11;;;;;;;4.68;2.40;;;;;;;38.81;15.23;99557.09;7606693;32;40013;-74
2022/07/29 12:26:27;;;;;;;4.80;2.50;;;;;;;39.05;15.09;99548.75;7613388;32;38651;-75
2022/07/29 12:30:50;;;;;;;7.00;2.62;;;;;;;38.87;15.11;99545.84;7596588;32;37114;-76
2022/07/29 12:35:11;;;;;;;6.97;2.60;;;;;;;39.12;14.51;99539.09;7606483;32;40079;-76
2022/07/29 12:39:27;;;;;;;5.95;2.45;;;;;;;39.09;14.82;99530.72;7593311;32;40942;-76
2022/07/29 12:43:56;;;;;;;5.15;2.70;;;;;;;39.35;14.23;99525.47;7615215;32;37962;-76
2022/07/29 12:48:13;;;;;;;6.45;2.75;;;;;;;39.74;13.73;99520.00;7606276;32;37023;-77
2022/07/29 12:52:34;;;;;;;5.68;2.30;;;;;;;39.68;13.93;99519.09;7629258;32;38819;-76
2022/07/29 12:56:59;;;;;;;10.77;2.72;;;;;;;39.55;14.26;99507.84;7617642;32;39604;-76
2022/07/29 13:01:17;;;;;;;5.10;2.53;;;;;;;39.25;14.20;99501.84;7597386;32;37933;-76
2022/07/29 13:05:41;;;;;;;6.55;2.40;;;;;;;39.35;13.99;99505.50;7622534;32;35989;-77
2022/07/29 13:10:18;;;;;;;5.93;2.33;;;;;;;39.74;13.96;99492.28;7620236;32;40177;-76
2022/07/29 13:14:42;;;;;;;6.68;2.50;;;;;;;39.83;14.17;99488.59;7605797;32;40018;-77
2022/07/29 13:19:09;;;;;;;7.22;2.65;;;;;;;39.59;13.62;99485.69;7605673;32;37988;-77
2022/07/29 13:23:25;;;;;;;4.80;2.47;;;;;;;38.86;14.29;99485.25;7592050;32;37338;-76
2022/07/29 13:27:41;;;;;;;7.62;2.65;;;;;;;38.82;13.86;99481.75;7608805;32;39488;-76
2022/07/29 13:31:57;;;;;;;5.80;2.58;;;;;;;38.02;15.12;99482.66;7630635;32;39969;-77
2022/07/29 13:36:14;;;;;;;5.07;2.60;;;;;;;37.95;15.13;99475.19;7629479;32;38692;-78
2022/07/29 13:40:35;;;;;;;4.57;2.42;;;;;;;37.54;15.26;99480.03;7631277;32;36093;-77
2022/07/29 13:44:51;;;;;;;3.45;2.42;;;;;;;37.51;15.79;99466.72;7631096;32;40138;-75
2022/07/29 13:49:07;;;;;;;8.05;2.78;;;;;;;37.19;16.20;99471.59;7631719;32;40786;-75
2022/07/29 13:53:23;;;;;;;4.53;2.58;;;;;;;37.14;16.26;99469.31;7631523;32;37912;-76
2022/07/29 13:57:42;;;;;;;4.65;2.65;;;;;;;36.83;16.87;99472.88;7631502;32;36046;-77
2022/07/29 14:01:58;;;;;;;5.50;2.50;;;;;;;36.63;16.80;99468.22;7630892;32;39471;-76
2022/07/29 14:06:14;;;;;;;8.57;2.80;;;;;;;36.57;16.81;99475.75;7630048;32;40717;-77
2022/07/29 14:10:32;;;;;;;4.75;2.70;;;;;;;36.42;16.92;99466.94;7628577;32;37795;-77
2022/07/29 14:14:49;;;;;;;5.45;2.50;;;;;;;36.39;16.51;99458.53;7630168;32;37014;-76
2022/07/29 14:19:05;;;;;;;5.97;2.42;;;;;;;36.05;17.17;99460.84;7630152;32;41034;-75
2022/07/29 14:23:22;;;;;;;5.85;2.97;;;;;;;36.08;21.10;99451.41;7629790;32;41280;-75
2022/07/29 14:27:38;;;;;;;5.70;2.70;;;;;;;35.85;24.45;99452.56;7629768;32;39245;-75
2022/07/29 14:31:56;;;;;;;7.60;2.58;;;;;;;35.80;22.33;99449.50;7629143;32;36941;-76
2022/07/29 14:36:13;;;;;;;4.87;2.58;;;;;;;35.69;20.77;99449.81;7629737;32;39461;-74
2022/07/29 14:40:29;;;;;;;5.75;2.60;;;;;;;35.66;21.32;99445.03;7629736;32;40835;-75
2022/07/29 14:44:45;;;;;;;8.70;2.53;;;;;;;35.52;24.42;99440.59;7629553;32;37698;-75
2022/07/29 14:49:01;;;;;;;4.95;2.78;;;;;;;35.78;24.00;99434.97;7631391;32;37306;-76
2022/07/29 14:53:17;;;;;;;5.85;2.33;;;;;;;36.57;20.60;99421.81;7630345;32;39426;-77
2022/07/29 14:57:33;;;;;;;2.90;2.30;;;;;;;37.63;19.07;99419.56;7630598;32;39965;-75
2022/07/29 15:01:50;;;;;;;6.85;2.10;;;;;;;38.43;17.30;99413.03;7633658;32;37902;-76
2022/07/29 15:06:06;;;;;;;6.57;2.30;;;;;;;38.89;15.98;99398.03;7633324;32;37051;-75
2022/07/29 15:10:23;;;;;;;6.82;2.37;;;;;;;38.66;15.55;99402.31;7633626;32;39334;-76
2022/07/29 15:14:39;;;;;;;4.85;2.30;;;;;;;38.09;15.77;99403.47;7630657;32;40774;-75
2022/07/29 15:18:57;;;;;;;5.00;2.42;;;;;;;37.94;16.13;99402.47;7633397;32;38608;-76
2022/07/29 15:23:16;;;;;;;5.55;2.30;;;;;;;37.81;16.34;99387.59;7626482;32;37139;-75
2022/07/29 15:27:32;;;;;;;5.12;2.70;;;;;;;37.92;15.75;99390.78;7614012;32;39481;-75
2022/07/29 15:31:48;;;;;;;8.38;2.30;;;;;;;38.11;16.02;99383.91;7613264;32;39985;-76
2022/07/29 15:36:05;;;;;;;6.57;2.67;;;;;;;37.94;15.02;99382.56;7633055;32;37707;-75
2022/07/29 15:40:21;;;;;;;7.12;2.50;;;;;;;38.26;15.19;99380.47;7630435;32;37135;-75
2022/07/29 15:44:37;;;;;;;9.27;2.95;;;;;;;38.50;14.62;99364.31;7607099;32;39427;-76
2022/07/29 15:48:53;;;;;;;4.57;2.65;;;;;;;37.70;15.02;99363.22;7621020;32;41063;-75
2022/07/29 15:53:09;;;;;;;5.53;2.50;;;;;;;37.52;15.62;99365.97;7621835;32;37613;-74
2022/07/29 15:57:25;;;;;;;5.93;2.37;;;;;;;37.33;16.10;99368.75;7631975;32;37052;-75
2022/07/29 16:01:41;;;;;;;4.30;2.85;;;;;;;37.33;16.19;99362.28;7631662;32;39428;-75
2022/07/29 16:05:58;;;;;;;3.70;2.42;;;;;;;37.06;16.86;99366.50;7618856;32;39909;-75
2022/07/29 16:10:14;;;;;;;4.78;2.67;;;;;;;36.80;17.34;99368.72;7626582;32;37572;-75
2022/07/29 16:14:30;;;;;;;6.95;2.90;;;;;;;36.68;17.18;99369.53;7632722;32;37266;-75
2022/07/29 16:18:47;;;;;;;4.45;2.30;;;;;;;36.52;17.75;99367.69;7632294;32;39442;-75
2022/07/29 16:23:03;;;;;;;7.32;2.20;;;;;;;36.47;17.96;99374.72;7617131;32;40489;-75
2022/07/29 16:27:25;;;;;;;12.80;2.83;;;;;;;36.41;18.44;99368.03;7606023;32;37671;-75
2022/07/29 16:31:53;;;;;;;7.15;2.45;;;;;;;36.24;18.79;99365.41;7606021;32;38050;-75
2022/07/29 16:36:09;;;;;;;8.80;2.50;;;;;;;36.23;18.43;99375.16;7608355;32;39368;-75
2022/07/29 16:40:28;;;;;;;5.68;2.60;;;;;;;36.40;18.46;99372.16;7605759;32;40023;-74
2022/07/29 16:44:44;;;;;;;6.82;2.50;;;;;;;36.38;18.26;99374.66;7620551;32;38014;-75
2022/07/29 16:49:00;;;;;;;12.15;3.00;;;;;;;36.23;18.49;99360.97;7627377;32;37122;-75
2022/07/29 16:53:17;;;;;;;6.05;2.78;;;;;;;36.02;18.83;99364.53;7611820;32;39355;-74
2022/07/29 16:57:33;;;;;;;7.25;2.65;;;;;;;35.67;19.66;99364.41;7618029;32;40069;-76
2022/07/29 17:01:49;;;;;;;13.25;3.28;;;;;;;35.72;19.22;99367.50;7617375;32;38774;-74
2022/07/29 17:06:06;;;;;;;9.75;3.20;;;;;;;35.57;21.20;99365.56;7631860;32;37958;-75
2022/07/29 17:10:22;;;;;;;7.20;3.28;;;;;;;34.98;30.94;99377.03;7631457;32;39516;-74
2022/07/29 17:14:38;;;;;;;5.30;2.58;;;;;;;34.23;34.34;99374.19;7631680;32;39655;-74
2022/07/29 17:18:56;;;;;;;8.80;3.05;;;;;;;33.61;34.03;99376.87;7616913;32;37662;-73
2022/07/29 17:23:12;;;;;;;6.12;2.75;;;;;;;33.35;32.95;99387.16;7609917;32;37672;-73
2022/07/29 17:27:28;;;;;;;6.45;2.92;;;;;;;32.93;32.64;99394.06;7617239;32;39841;-74
2022/07/29 17:31:45;;;;;;;6.45;2.87;;;;;;;32.70;31.80;99400.56;7622545;32;40813;-74
2022/07/29 17:40:35;;;;;;;7.28;3.15;;;;;;;31.96;30.96;99425.94;7608552;32;37694;-74
2022/07/29 17:44:51;;;;;;;5.72;3.00;;;;;;;31.62;28.96;99449.41;7624247;32;39534;-73
2022/07/29 17:49:08;;;;;;;8.75;3.17;;;;;;;31.82;30.00;99461.59;7610421;32;39866;-77
2022/07/29 17:53:24;;;;;;;9.90;3.62;;;;;;;30.93;38.05;99465.50;7605435;32;38164;-77
2022/07/29 17:57:40;;;;;;;11.85;3.55;;;;;;;30.44;40.14;99485.25;7605576;32;38280;-76
2022/07/29 18:01:56;;;;;;;8.23;3.55;;;;;;;29.59;42.83;99474.91;7629044;32;40122;-76
2022/07/29 18:06:12;;;;;;;9.73;3.95;;;;;;;29.36;43.86;99477.44;7626725;32;149969;-76
2022/07/29 18:10:29;;;;;;;11.70;4.50;;;;;;;28.48;45.64;99475.16;7631382;32;37704;-76
2022/07/29 18:14:45;;;;;;;7.05;4.05;;;;;;;28.07;45.75;99484.75;7631152;32;37959;-74
2022/07/29 18:19:01;;;;;;;9.32;4.37;;;;;;;27.82;45.60;99489.47;7622377;32;40232;-76
2022/07/29 18:23:17;;;;;;;9.88;4.10;;;;;;;27.51;46.78;99491.75;7603928;32;40035;-74
2022/07/29 18:27:33;;;;;;;12.02;4.45;;;;;;;27.67;46.35;99495.03;7604973;32;38214;-75
2022/07/29 18:31:49;;;;;;;10.80;3.95;;;;;;;27.43;47.33;99501.34;7604806;32;37208;-75
2022/07/29 18:36:06;;;;;;;7.35;4.22;;;;;;;27.03;49.17;99503.09;7615234;32;40245;-77
2022/07/29 18:40:27;;;;;;;9.10;4.12;;;;;;;26.69;50.13;99503.28;7630679;32;39544;-76
2022/07/29 18:44:44;;;;;;;10.07;4.22;;;;;;;26.39;51.45;99496.63;7630567;32;37945;-77
2022/07/29 18:49:04;;;;;;;8.25;4.90;;;;;;;26.30;50.75;99498.13;7630205;32;37061;-77
2022/07/29 18:53:20;;;;;;;9.02;4.35;;;;;;;26.28;50.63;99498.50;7618436;32;40157;-78
2022/07/29 18:57:36;;;;;;;12.75;4.82;;;;;;;26.02;52.37;99508.63;7618850;32;40053;-77
2022/07/29 19:02:11;;;;;;;11.95;4.53;;;;;;;25.77;52.38;99499.97;7604036;32;38125;-77
2022/07/29 19:06:27;;;;;;;8.48;4.55;;;;;;;25.80;52.60;99504.81;7603977;32;37432;-76
2022/07/29 19:10:43;;;;;;;8.73;4.40;;;;;;;25.70;52.44;99504.66;7620990;32;39387;-75
2022/07/29 19:15:00;;;;;;;8.43;4.62;;;;;;;25.66;52.61;99505.44;7630203;32;38342;-77
2022/07/29 19:19:16;;;;;;;7.50;4.22;;;;;;;25.51;53.52;99508.44;7629407;32;37703;-77
2022/07/29 19:23:32;;;;;;;9.05;4.22;;;;;;;25.68;52.17;99516.22;7629499;32;36847;-76
2022/07/29 19:28:09;;;;;;;5.90;4.12;;;;;;;25.47;53.24;99514.78;7603911;32;40582;-75
2022/07/29 19:32:25;;;;;;;6.47;3.80;;;;;;;25.67;51.17;99520.19;7603552;32;40789;-76
2022/07/29 19:36:41;;;;;;;10.10;4.37;;;;;;;25.94;49.44;99514.50;7627538;32;37899;-75
2022/07/29 19:40:57;;;;;;;5.87;4.30;;;;;;;25.88;49.86;99516.06;7616725;32;37940;-77
2022/07/29 19:45:13;;;;;;;7.82;3.90;;;;;;;25.81;50.38;99520.34;7606880;32;39366;-76
2022/07/29 19:49:30;;;;;;;5.25;3.80;;;;;;;25.75;50.44;99518.28;7606939;32;39860;-76
2022/07/29 19:53:48;;;;;;;6.85;4.03;;;;;;;25.99;49.67;99530.94;7616314;32;39599;-75
2022/07/29 19:58:05;;;;;;;7.85;4.05;;;;;;;25.74;50.98;99528.66;7633185;32;37032;-76
2022/07/29 20:02:23;;;;;;;7.22;3.80;;;;;;;25.92;50.65;99533.63;7632994;32;38433;-76
2022/07/29 20:06:39;;;;;;;5.43;3.90;;;;;;;25.93;50.05;99526.88;7627180;32;40061;-75
2022/07/29 20:10:58;;;;;;;7.50;4.65;;;;;;;25.72;50.53;99517.06;7611265;32;36886;-76
2022/07/29 20:15:14;;;;;;;9.00;4.50;;;;;;;25.66;50.68;99515.78;7630912;32;36966;-75
2022/07/29 20:19:32;;;;;;;8.52;4.05;;;;;;;25.67;50.57;99518.22;7632806;32;39631;-74
2022/07/29 20:23:48;;;;;;;7.22;4.28;;;;;;;25.70;50.29;99513.03;7631777;32;40830;-74
2022/07/29 20:28:04;;;;;;;7.55;4.10;;;;;;;25.70;50.38;99519.44;7620119;32;38600;-76
2022/07/29 20:32:20;;;;;;;5.50;3.75;;;;;;;25.89;49.29;99521.25;7640389;32;37193;-74